ΕΜΥ, Εθνική Μετεωρολογική Υπηρεσία - Δελτία Καιρού, Προγνώσεις

ΑΕΡΟΝΑΥΤΙΛΙΑ

GREEK AIRPORTS CODES

LGML 091700Z 33008KT CAVOK 27/19 Q1008=

EUROPEAN AIRPORTS CODES

LFPO 091730Z AUTO 04010KT 010V070 CAVOK 30/10 Q1022 NOSIG=